sensor_id;sensor_type;location;lat;lon;timestamp;temperature;humidity
1602;DHT22;794;48.592;9.634;2024-02-21T00:07:57;5.00;1.00
1602;DHT22;794;48.592;9.634;2024-02-21T00:10:24;5.30;1.00
1602;DHT22;794;48.592;9.634;2024-02-21T00:20:14;5.10;1.00
1602;DHT22;794;48.592;9.634;2024-02-21T00:22:41;5.20;1.00
1602;DHT22;794;48.592;9.634;2024-02-21T00:25:09;5.00;1.00
1602;DHT22;794;48.592;9.634;2024-02-21T00:30:05;5.10;1.00
1602;DHT22;794;48.592;9.634;2024-02-21T00:37:27;5.20;1.00
1602;DHT22;794;48.592;9.634;2024-02-21T00:42:23;5.30;1.00
1602;DHT22;794;48.592;9.634;2024-02-21T00:44:50;5.20;1.00
1602;DHT22;794;48.592;9.634;2024-02-21T00:49:44;5.40;1.00
1602;DHT22;794;48.592;9.634;2024-02-21T00:52:11;5.50;1.00
1602;DHT22;794;48.592;9.634;2024-02-21T00:57:05;5.20;1.00
1602;DHT22;794;48.592;9.634;2024-02-21T00:59:33;5.30;1.00
1602;DHT22;794;48.592;9.634;2024-02-21T01:16:44;5.10;1.00
1602;DHT22;794;48.592;9.634;2024-02-21T01:24:06;5.20;1.00
1602;DHT22;794;48.592;9.634;2024-02-21T01:31:27;5.10;1.00
1602;DHT22;794;48.592;9.634;2024-02-21T01:33:55;5.30;1.00
1602;DHT22;794;48.592;9.634;2024-02-21T01:38:49;4.90;1.00
1602;DHT22;794;48.592;9.634;2024-02-21T01:43:43;4.90;1.00
1602;DHT22;794;48.592;9.634;2024-02-21T01:46:10;5.00;1.00
1602;DHT22;794;48.592;9.634;2024-02-21T01:51:06;5.30;1.00
1602;DHT22;794;48.592;9.634;2024-02-21T01:53:35;5.50;1.00
1602;DHT22;794;48.592;9.634;2024-02-21T01:56:04;5.40;1.00
1602;DHT22;794;48.592;9.634;2024-02-21T01:58:32;5.20;1.00
1602;DHT22;794;48.592;9.634;2024-02-21T02:01:02;6.30;1.00
1602;DHT22;794;48.592;9.634;2024-02-21T02:03:30;5.60;1.00
1602;DHT22;794;48.592;9.634;2024-02-21T02:05:57;5.30;1.00
1602;DHT22;794;48.592;9.634;2024-02-21T02:08:26;5.20;1.00
1602;DHT22;794;48.592;9.634;2024-02-21T02:13:20;5.30;1.00
1602;DHT22;794;48.592;9.634;2024-02-21T02:15:48;5.50;1.00
1602;DHT22;794;48.592;9.634;2024-02-21T02:18:16;5.50;1.00
1602;DHT22;794;48.592;9.634;2024-02-21T02:23:12;5.40;1.00
1602;DHT22;794;48.592;9.634;2024-02-21T02:25:41;5.40;1.00
1602;DHT22;794;48.592;9.634;2024-02-21T02:30:36;5.60;1.00
1602;DHT22;794;48.592;9.634;2024-02-21T02:33:03;5.40;1.00
1602;DHT22;794;48.592;9.634;2024-02-21T02:35:30;5.40;1.00
1602;DHT22;794;48.592;9.634;2024-02-21T02:40:25;5.40;1.00
1602;DHT22;794;48.592;9.634;2024-02-21T02:42:53;5.60;1.00
1602;DHT22;794;48.592;9.634;2024-02-21T02:45:21;6.70;1.00
1602;DHT22;794;48.592;9.634;2024-02-21T02:47:51;5.70;1.00
1602;DHT22;794;48.592;9.634;2024-02-21T02:52:46;5.50;1.00
1602;DHT22;794;48.592;9.634;2024-02-21T02:55:14;5.60;1.00
1602;DHT22;794;48.592;9.634;2024-02-21T03:00:11;5.50;1.00
1602;DHT22;794;48.592;9.634;2024-02-21T03:02:39;5.60;1.00
1602;DHT22;794;48.592;9.634;2024-02-21T03:05:12;5.70;1.00
1602;DHT22;794;48.592;9.634;2024-02-21T03:10:07;5.70;1.00
1602;DHT22;794;48.592;9.634;2024-02-21T03:17:30;6.00;1.00
1602;DHT22;794;48.592;9.634;2024-02-21T03:22:25;5.80;1.00
1602;DHT22;794;48.592;9.634;2024-02-21T03:24:52;6.60;1.00
1602;DHT22;794;48.592;9.634;2024-02-21T03:27:19;6.40;1.00
1602;DHT22;794;48.592;9.634;2024-02-21T03:34:42;5.90;1.00
1602;DHT22;794;48.592;9.634;2024-02-21T03:37:09;5.80;1.00
1602;DHT22;794;48.592;9.634;2024-02-21T03:39:35;6.20;1.00
1602;DHT22;794;48.592;9.634;2024-02-21T03:42:03;6.80;1.00
1602;DHT22;794;48.592;9.634;2024-02-21T03:44:31;6.10;1.00
1602;DHT22;794;48.592;9.634;2024-02-21T03:51:54;5.90;1.00
1602;DHT22;794;48.592;9.634;2024-02-21T03:56:48;5.80;1.00
1602;DHT22;794;48.592;9.634;2024-02-21T03:59:15;6.30;1.00
1602;DHT22;794;48.592;9.634;2024-02-21T04:04:10;5.90;1.00
1602;DHT22;794;48.592;9.634;2024-02-21T04:09:05;6.10;1.00
1602;DHT22;794;48.592;9.634;2024-02-21T04:11:32;6.00;1.00
1602;DHT22;794;48.592;9.634;2024-02-21T04:21:20;5.60;1.00
1602;DHT22;794;48.592;9.634;2024-02-21T04:23:47;5.50;1.00
1602;DHT22;794;48.592;9.634;2024-02-21T04:26:15;5.50;1.00
1602;DHT22;794;48.592;9.634;2024-02-21T04:28:44;5.40;1.00
1602;DHT22;794;48.592;9.634;2024-02-21T04:36:06;5.70;1.00
1602;DHT22;794;48.592;9.634;2024-02-21T04:38:33;5.40;1.00
1602;DHT22;794;48.592;9.634;2024-02-21T04:43:28;5.60;1.00
1602;DHT22;794;48.592;9.634;2024-02-21T04:48:22;5.30;1.00
1602;DHT22;794;48.592;9.634;2024-02-21T04:58:11;5.20;1.00
1602;DHT22;794;48.592;9.634;2024-02-21T05:00:39;5.00;1.00
1602;DHT22;794;48.592;9.634;2024-02-21T05:15:22;4.80;1.00
1602;DHT22;794;48.592;9.634;2024-02-21T05:17:51;4.70;1.00
1602;DHT22;794;48.592;9.634;2024-02-21T05:20:18;4.80;1.00
1602;DHT22;794;48.592;9.634;2024-02-21T05:22:44;4.60;1.00
1602;DHT22;794;48.592;9.634;2024-02-21T05:30:11;4.60;1.00
1602;DHT22;794;48.592;9.634;2024-02-21T05:35:08;4.50;1.00
1602;DHT22;794;48.592;9.634;2024-02-21T05:37:35;5.30;1.00
1602;DHT22;794;48.592;9.634;2024-02-21T05:40:02;4.40;1.00
1602;DHT22;794;48.592;9.634;2024-02-21T05:42:29;4.20;1.00
1602;DHT22;794;48.592;9.634;2024-02-21T05:44:56;4.70;1.00
1602;DHT22;794;48.592;9.634;2024-02-21T05:47:23;4.10;1.00
1602;DHT22;794;48.592;9.634;2024-02-21T05:49:50;3.60;1.00
1602;DHT22;794;48.592;9.634;2024-02-21T05:52:20;3.60;1.00
1602;DHT22;794;48.592;9.634;2024-02-21T05:54:47;4.00;1.00
1602;DHT22;794;48.592;9.634;2024-02-21T05:57:17;3.70;1.00
1602;DHT22;794;48.592;9.634;2024-02-21T06:02:11;3.70;1.00
1602;DHT22;794;48.592;9.634;2024-02-21T06:04:39;3.60;1.00
1602;DHT22;794;48.592;9.634;2024-02-21T06:07:06;4.50;1.00
1602;DHT22;794;48.592;9.634;2024-02-21T06:09:34;3.60;1.00
1602;DHT22;794;48.592;9.634;2024-02-21T06:12:01;3.40;1.00
1602;DHT22;794;48.592;9.634;2024-02-21T06:16:55;3.40;1.00
1602;DHT22;794;48.592;9.634;2024-02-21T06:19:22;3.30;1.00
1602;DHT22;794;48.592;9.634;2024-02-21T06:21:49;4.30;1.00
1602;DHT22;794;48.592;9.634;2024-02-21T06:24:16;3.40;1.00
1602;DHT22;794;48.592;9.634;2024-02-21T06:26:44;4.00;1.00
1602;DHT22;794;48.592;9.634;2024-02-21T06:29:11;3.40;1.00
1602;DHT22;794;48.592;9.634;2024-02-21T06:34:06;3.10;1.00
1602;DHT22;794;48.592;9.634;2024-02-21T06:36:33;3.70;1.00
1602;DHT22;794;48.592;9.634;2024-02-21T06:39:00;3.40;1.00
1602;DHT22;794;48.592;9.634;2024-02-21T06:41:27;4.40;1.00
1602;DHT22;794;48.592;9.634;2024-02-21T06:43:57;4.90;1.00
1602;DHT22;794;48.592;9.634;2024-02-21T06:46:24;3.80;1.00
1602;DHT22;794;48.592;9.634;2024-02-21T06:53:46;4.10;1.00
1602;DHT22;794;48.592;9.634;2024-02-21T06:58:40;4.20;1.00
1602;DHT22;794;48.592;9.634;2024-02-21T07:01:08;4.70;1.00
1602;DHT22;794;48.592;9.634;2024-02-21T07:08:30;4.20;1.00
1602;DHT22;794;48.592;9.634;2024-02-21T07:18:20;4.50;1.00
1602;DHT22;794;48.592;9.634;2024-02-21T07:35:31;5.00;1.00
1602;DHT22;794;48.592;9.634;2024-02-21T07:37:58;5.60;1.00
1602;DHT22;794;48.592;9.634;2024-02-21T07:50:16;5.40;1.00
1602;DHT22;794;48.592;9.634;2024-02-21T07:52:45;5.50;1.00
1602;DHT22;794;48.592;9.634;2024-02-21T08:00:07;5.90;1.00
1602;DHT22;794;48.592;9.634;2024-02-21T08:05:03;6.30;1.00
1602;DHT22;794;48.592;9.634;2024-02-21T08:09:59;6.70;1.00
1602;DHT22;794;48.592;9.634;2024-02-21T08:27:11;9.70;1.00
1602;DHT22;794;48.592;9.634;2024-02-21T08:44:24;15.40;1.00
1602;DHT22;794;48.592;9.634;2024-02-21T09:01:36;16.80;1.00
1602;DHT22;794;48.592;9.634;2024-02-21T09:04:03;16.00;1.00
1602;DHT22;794;48.592;9.634;2024-02-21T09:06:30;14.40;1.00
1602;DHT22;794;48.592;9.634;2024-02-21T09:08:59;13.50;1.00
1602;DHT22;794;48.592;9.634;2024-02-21T09:11:25;13.20;1.00
1602;DHT22;794;48.592;9.634;2024-02-21T09:13:54;13.70;1.00
1602;DHT22;794;48.592;9.634;2024-02-21T09:18:50;13.80;1.00
1602;DHT22;794;48.592;9.634;2024-02-21T09:21:18;12.90;1.00
1602;DHT22;794;48.592;9.634;2024-02-21T09:23:45;13.80;1.00
1602;DHT22;794;48.592;9.634;2024-02-21T09:26:12;13.80;1.00
1602;DHT22;794;48.592;9.634;2024-02-21T09:28:42;13.30;1.00
1602;DHT22;794;48.592;9.634;2024-02-21T09:31:09;13.30;1.00
1602;DHT22;794;48.592;9.634;2024-02-21T09:36:06;13.20;1.00
1602;DHT22;794;48.592;9.634;2024-02-21T09:38:33;13.20;1.00
1602;DHT22;794;48.592;9.634;2024-02-21T09:41:03;12.60;1.00
1602;DHT22;794;48.592;9.634;2024-02-21T09:43:31;12.70;1.00
1602;DHT22;794;48.592;9.634;2024-02-21T09:46:00;12.30;1.00
1602;DHT22;794;48.592;9.634;2024-02-21T09:48:41;12.70;1.00
1602;DHT22;794;48.592;9.634;2024-02-21T09:51:14;12.80;1.00
1602;DHT22;794;48.592;9.634;2024-02-21T09:53:42;13.30;1.00
1602;DHT22;794;48.592;9.634;2024-02-21T09:56:10;13.10;1.00
1602;DHT22;794;48.592;9.634;2024-02-21T09:58:37;13.70;1.00
1602;DHT22;794;48.592;9.634;2024-02-21T10:06:00;13.30;1.00
1602;DHT22;794;48.592;9.634;2024-02-21T10:08:29;13.90;1.00
1602;DHT22;794;48.592;9.634;2024-02-21T10:13:26;14.40;1.00
1602;DHT22;794;48.592;9.634;2024-02-21T10:16:03;14.00;1.00
1602;DHT22;794;48.592;9.634;2024-02-21T10:21:02;14.30;1.00
1602;DHT22;794;48.592;9.634;2024-02-21T10:23:41;14.60;1.00
1602;DHT22;794;48.592;9.634;2024-02-21T10:26:08;14.60;1.00
1602;DHT22;794;48.592;9.634;2024-02-21T10:28:34;14.10;1.00
1602;DHT22;794;48.592;9.634;2024-02-21T10:36:06;14.00;1.00
1602;DHT22;794;48.592;9.634;2024-02-21T10:38:36;14.20;1.00
1602;DHT22;794;48.592;9.634;2024-02-21T10:41:05;14.60;1.00
1602;DHT22;794;48.592;9.634;2024-02-21T10:43:38;14.90;1.00
1602;DHT22;794;48.592;9.634;2024-02-21T10:46:07;15.10;1.00
1602;DHT22;794;48.592;9.634;2024-02-21T10:48:41;15.70;1.00
1602;DHT22;794;48.592;9.634;2024-02-21T10:51:16;15.50;1.00
1602;DHT22;794;48.592;9.634;2024-02-21T10:53:50;15.80;1.00
1602;DHT22;794;48.592;9.634;2024-02-21T10:56:26;15.50;1.00
1602;DHT22;794;48.592;9.634;2024-02-21T10:58:55;15.20;1.00
1602;DHT22;794;48.592;9.634;2024-02-21T11:01:24;15.10;1.00
1602;DHT22;794;48.592;9.634;2024-02-21T11:03:54;15.70;1.00
1602;DHT22;794;48.592;9.634;2024-02-21T11:06:22;14.90;1.00
1602;DHT22;794;48.592;9.634;2024-02-21T11:09:01;14.60;1.00
1602;DHT22;794;48.592;9.634;2024-02-21T11:11:29;15.10;1.00
1602;DHT22;794;48.592;9.634;2024-02-21T11:14:05;14.80;1.00
1602;DHT22;794;48.592;9.634;2024-02-21T11:16:36;14.80;1.00
1602;DHT22;794;48.592;9.634;2024-02-21T11:19:05;14.80;1.00
1602;DHT22;794;48.592;9.634;2024-02-21T11:21:35;14.90;1.00
1602;DHT22;794;48.592;9.634;2024-02-21T11:24:04;14.50;1.00
1602;DHT22;794;48.592;9.634;2024-02-21T11:26:32;14.80;1.00
1602;DHT22;794;48.592;9.634;2024-02-21T11:29:00;14.40;1.00
1602;DHT22;794;48.592;9.634;2024-02-21T11:31:38;14.40;1.00
1602;DHT22;794;48.592;9.634;2024-02-21T11:34:09;14.50;1.00
1602;DHT22;794;48.592;9.634;2024-02-21T11:36:36;14.40;1.00
1602;DHT22;794;48.592;9.634;2024-02-21T11:39:18;14.20;1.00
1602;DHT22;794;48.592;9.634;2024-02-21T11:41:46;14.40;1.00
1602;DHT22;794;48.592;9.634;2024-02-21T11:44:16;14.20;1.00
1602;DHT22;794;48.592;9.634;2024-02-21T11:46:43;13.90;1.00
1602;DHT22;794;48.592;9.634;2024-02-21T11:51:39;14.20;1.00
1602;DHT22;794;48.592;9.634;2024-02-21T11:54:06;14.30;1.00
1602;DHT22;794;48.592;9.634;2024-02-21T11:56:36;14.20;1.00
1602;DHT22;794;48.592;9.634;2024-02-21T12:01:32;14.50;1.00
1602;DHT22;794;48.592;9.634;2024-02-21T12:08:58;14.70;1.00
1602;DHT22;794;48.592;9.634;2024-02-21T12:11:25;14.90;1.00
1602;DHT22;794;48.592;9.634;2024-02-21T12:14:03;15.00;1.00
1602;DHT22;794;48.592;9.634;2024-02-21T12:16:31;15.10;1.00
1602;DHT22;794;48.592;9.634;2024-02-21T12:18:59;15.30;1.00
1602;DHT22;794;48.592;9.634;2024-02-21T12:21:27;15.30;1.00
1602;DHT22;794;48.592;9.634;2024-02-21T12:28:50;15.30;1.00
1602;DHT22;794;48.592;9.634;2024-02-21T12:31:18;14.90;1.00
1602;DHT22;794;48.592;9.634;2024-02-21T12:33:45;14.80;1.00
1602;DHT22;794;48.592;9.634;2024-02-21T12:36:12;14.50;1.00
1602;DHT22;794;48.592;9.634;2024-02-21T12:38:39;15.10;1.00
1602;DHT22;794;48.592;9.634;2024-02-21T12:41:06;14.70;1.00
1602;DHT22;794;48.592;9.634;2024-02-21T12:43:34;14.40;1.00
1602;DHT22;794;48.592;9.634;2024-02-21T12:48:30;14.90;1.00
1602;DHT22;794;48.592;9.634;2024-02-21T12:50:57;15.10;1.00
1602;DHT22;794;48.592;9.634;2024-02-21T12:58:18;14.40;1.00
1602;DHT22;794;48.592;9.634;2024-02-21T13:00:47;14.50;1.00
1602;DHT22;794;48.592;9.634;2024-02-21T13:03:16;14.30;1.00
1602;DHT22;794;48.592;9.634;2024-02-21T13:05:44;14.30;1.00
1602;DHT22;794;48.592;9.634;2024-02-21T13:08:13;14.20;1.00
1602;DHT22;794;48.592;9.634;2024-02-21T13:10:40;14.50;1.00
1602;DHT22;794;48.592;9.634;2024-02-21T13:13:07;13.40;1.00
1602;DHT22;794;48.592;9.634;2024-02-21T13:18:03;14.50;1.00
1602;DHT22;794;48.592;9.634;2024-02-21T13:20:30;14.40;1.00
1602;DHT22;794;48.592;9.634;2024-02-21T13:22:58;14.50;1.00
1602;DHT22;794;48.592;9.634;2024-02-21T13:25:25;14.30;1.00
1602;DHT22;794;48.592;9.634;2024-02-21T13:30:19;14.60;1.00
1602;DHT22;794;48.592;9.634;2024-02-21T13:40:10;15.50;1.00
1602;DHT22;794;48.592;9.634;2024-02-21T13:42:39;14.60;1.00
1602;DHT22;794;48.592;9.634;2024-02-21T13:45:07;14.50;1.00
1602;DHT22;794;48.592;9.634;2024-02-21T13:47:35;14.40;1.00
1602;DHT22;794;48.592;9.634;2024-02-21T13:50:05;14.20;1.00
1602;DHT22;794;48.592;9.634;2024-02-21T13:52:34;14.50;1.00
1602;DHT22;794;48.592;9.634;2024-02-21T13:55:01;14.20;1.00
1602;DHT22;794;48.592;9.634;2024-02-21T13:57:30;14.50;1.00
1602;DHT22;794;48.592;9.634;2024-02-21T14:04:52;14.50;1.00
1602;DHT22;794;48.592;9.634;2024-02-21T14:07:19;14.70;1.00
1602;DHT22;794;48.592;9.634;2024-02-21T14:09:46;14.40;1.00
1602;DHT22;794;48.592;9.634;2024-02-21T14:12:12;14.50;1.00
1602;DHT22;794;48.592;9.634;2024-02-21T14:14:43;14.30;1.00
1602;DHT22;794;48.592;9.634;2024-02-21T14:17:10;14.30;1.00
1602;DHT22;794;48.592;9.634;2024-02-21T14:19:37;14.40;1.00
1602;DHT22;794;48.592;9.634;2024-02-21T14:29:26;14.00;1.00
1602;DHT22;794;48.592;9.634;2024-02-21T14:31:55;14.30;1.00
1602;DHT22;794;48.592;9.634;2024-02-21T14:41:44;13.90;1.00
1602;DHT22;794;48.592;9.634;2024-02-21T14:49:08;13.80;1.00
1602;DHT22;794;48.592;9.634;2024-02-21T14:51:35;13.80;1.00
1602;DHT22;794;48.592;9.634;2024-02-21T14:58:57;13.80;1.00
1602;DHT22;794;48.592;9.634;2024-02-21T15:01:24;13.90;1.00
1602;DHT22;794;48.592;9.634;2024-02-21T15:03:51;14.10;1.00
1602;DHT22;794;48.592;9.634;2024-02-21T15:06:19;14.10;1.00
1602;DHT22;794;48.592;9.634;2024-02-21T15:08:46;14.00;1.00
1602;DHT22;794;48.592;9.634;2024-02-21T15:13:41;13.80;1.00
1602;DHT22;794;48.592;9.634;2024-02-21T15:21:04;13.80;1.00
1602;DHT22;794;48.592;9.634;2024-02-21T15:23:32;13.80;1.00
1602;DHT22;794;48.592;9.634;2024-02-21T15:30:54;13.90;1.00
1602;DHT22;794;48.592;9.634;2024-02-21T15:33:21;13.50;1.00
1602;DHT22;794;48.592;9.634;2024-02-21T15:35:48;13.80;1.00
1602;DHT22;794;48.592;9.634;2024-02-21T15:40:43;13.60;1.00
1602;DHT22;794;48.592;9.634;2024-02-21T15:43:10;13.50;1.00
1602;DHT22;794;48.592;9.634;2024-02-21T15:45:37;13.40;1.00
1602;DHT22;794;48.592;9.634;2024-02-21T15:48:06;13.20;1.00
1602;DHT22;794;48.592;9.634;2024-02-21T15:50:33;13.00;1.00
1602;DHT22;794;48.592;9.634;2024-02-21T15:53:00;12.80;1.00
1602;DHT22;794;48.592;9.634;2024-02-21T15:55:27;12.80;1.00
1602;DHT22;794;48.592;9.634;2024-02-21T15:57:55;12.80;1.00
1602;DHT22;794;48.592;9.634;2024-02-21T16:07:18;12.00;1.00
1602;DHT22;794;48.592;9.634;2024-02-21T16:09:45;12.10;1.00
1602;DHT22;794;48.592;9.634;2024-02-21T16:12:13;11.70;1.00
1602;DHT22;794;48.592;9.634;2024-02-21T16:14:41;11.50;1.00
1602;DHT22;794;48.592;9.634;2024-02-21T16:17:13;11.30;1.00
1602;DHT22;794;48.592;9.634;2024-02-21T16:19:40;11.20;1.00
1602;DHT22;794;48.592;9.634;2024-02-21T16:22:07;11.30;1.00
1602;DHT22;794;48.592;9.634;2024-02-21T16:24:34;11.20;1.00
1602;DHT22;794;48.592;9.634;2024-02-21T16:27:01;11.20;1.00
1602;DHT22;794;48.592;9.634;2024-02-21T16:32:57;10.90;1.00
1602;DHT22;794;48.592;9.634;2024-02-21T16:35:24;11.00;1.00
1602;DHT22;794;48.592;9.634;2024-02-21T16:37:53;10.70;1.00
1602;DHT22;794;48.592;9.634;2024-02-21T16:40:20;10.70;1.00
1602;DHT22;794;48.592;9.634;2024-02-21T16:42:47;10.70;1.00
1602;DHT22;794;48.592;9.634;2024-02-21T16:45:15;10.50;1.00
1602;DHT22;794;48.592;9.634;2024-02-21T16:50:10;10.30;1.00
1602;DHT22;794;48.592;9.634;2024-02-21T16:52:37;10.50;1.00
1602;DHT22;794;48.592;9.634;2024-02-21T16:55:06;10.50;1.00
1602;DHT22;794;48.592;9.634;2024-02-21T16:57:34;10.40;1.00
1602;DHT22;794;48.592;9.634;2024-02-21T17:00:01;10.60;1.00
1602;DHT22;794;48.592;9.634;2024-02-21T17:02:37;10.30;1.00
1602;DHT22;794;48.592;9.634;2024-02-21T17:05:04;10.10;1.00
1602;DHT22;794;48.592;9.634;2024-02-21T17:07:33;10.30;1.00
1602;DHT22;794;48.592;9.634;2024-02-21T17:10:01;10.30;1.00
1602;DHT22;794;48.592;9.634;2024-02-21T17:19:53;10.00;1.00
1602;DHT22;794;48.592;9.634;2024-02-21T17:22:20;9.80;1.00
1602;DHT22;794;48.592;9.634;2024-02-21T17:24:48;9.80;1.00
1602;DHT22;794;48.592;9.634;2024-02-21T17:29:42;10.00;1.00
1602;DHT22;794;48.592;9.634;2024-02-21T17:32:09;9.70;1.00
1602;DHT22;794;48.592;9.634;2024-02-21T17:34:36;11.20;1.00
1602;DHT22;794;48.592;9.634;2024-02-21T17:37:03;9.40;1.00
1602;DHT22;794;48.592;9.634;2024-02-21T17:39:31;9.40;1.00
1602;DHT22;794;48.592;9.634;2024-02-21T17:41:59;9.50;1.00
1602;DHT22;794;48.592;9.634;2024-02-21T17:44:26;9.40;1.00
1602;DHT22;794;48.592;9.634;2024-02-21T17:51:49;9.40;1.00
1602;DHT22;794;48.592;9.634;2024-02-21T17:56:43;9.20;1.00
1602;DHT22;794;48.592;9.634;2024-02-21T17:59:11;9.00;1.00
1602;DHT22;794;48.592;9.634;2024-02-21T18:06:33;9.00;1.00
1602;DHT22;794;48.592;9.634;2024-02-21T18:09:00;9.20;1.00
1602;DHT22;794;48.592;9.634;2024-02-21T18:11:29;8.80;1.00
1602;DHT22;794;48.592;9.634;2024-02-21T18:13:56;9.00;1.00
1602;DHT22;794;48.592;9.634;2024-02-21T18:16:24;9.10;1.00
1602;DHT22;794;48.592;9.634;2024-02-21T18:23:46;9.30;1.00
1602;DHT22;794;48.592;9.634;2024-02-21T18:26:13;9.30;1.00
1602;DHT22;794;48.592;9.634;2024-02-21T18:28:40;9.40;1.00
1602;DHT22;794;48.592;9.634;2024-02-21T18:31:07;9.60;1.00
1602;DHT22;794;48.592;9.634;2024-02-21T18:33:35;9.40;1.00
1602;DHT22;794;48.592;9.634;2024-02-21T18:36:02;9.30;1.00
1602;DHT22;794;48.592;9.634;2024-02-21T18:50:46;9.90;1.00
1602;DHT22;794;48.592;9.634;2024-02-21T18:53:13;9.80;1.00
1602;DHT22;794;48.592;9.634;2024-02-21T18:55:40;9.60;1.00
1602;DHT22;794;48.592;9.634;2024-02-21T18:58:07;9.60;1.00
1602;DHT22;794;48.592;9.634;2024-02-21T19:03:01;10.10;1.00
1602;DHT22;794;48.592;9.634;2024-02-21T19:05:28;9.70;1.00
1602;DHT22;794;48.592;9.634;2024-02-21T19:07:56;10.00;1.00
1602;DHT22;794;48.592;9.634;2024-02-21T19:10:24;9.80;1.00
1602;DHT22;794;48.592;9.634;2024-02-21T19:12:52;9.80;1.00
1602;DHT22;794;48.592;9.634;2024-02-21T19:17:47;9.90;1.00
1602;DHT22;794;48.592;9.634;2024-02-21T19:20:14;9.80;1.00
1602;DHT22;794;48.592;9.634;2024-02-21T19:22:41;9.80;1.00
1602;DHT22;794;48.592;9.634;2024-02-21T19:25:12;10.00;1.00
1602;DHT22;794;48.592;9.634;2024-02-21T19:27:43;10.00;1.00
1602;DHT22;794;48.592;9.634;2024-02-21T19:32:38;10.00;1.00
1602;DHT22;794;48.592;9.634;2024-02-21T19:35:05;9.80;1.00
1602;DHT22;794;48.592;9.634;2024-02-21T19:37:37;9.80;1.00
1602;DHT22;794;48.592;9.634;2024-02-21T19:40:06;10.00;1.00
1602;DHT22;794;48.592;9.634;2024-02-21T19:42:34;10.10;1.00
1602;DHT22;794;48.592;9.634;2024-02-21T19:45:01;10.10;1.00
1602;DHT22;794;48.592;9.634;2024-02-21T19:47:31;10.00;1.00
1602;DHT22;794;48.592;9.634;2024-02-21T19:52:26;10.30;1.00
1602;DHT22;794;48.592;9.634;2024-02-21T19:54:54;10.20;1.00
1602;DHT22;794;48.592;9.634;2024-02-21T19:57:22;10.20;1.00
1602;DHT22;794;48.592;9.634;2024-02-21T19:59:51;10.10;1.00
1602;DHT22;794;48.592;9.634;2024-02-21T20:02:19;10.00;1.00
1602;DHT22;794;48.592;9.634;2024-02-21T20:04:45;10.40;1.00
1602;DHT22;794;48.592;9.634;2024-02-21T20:09:40;10.10;1.00
1602;DHT22;794;48.592;9.634;2024-02-21T20:12:07;9.90;1.00
1602;DHT22;794;48.592;9.634;2024-02-21T20:14:34;9.70;1.00
1602;DHT22;794;48.592;9.634;2024-02-21T20:17:03;9.80;1.00
1602;DHT22;794;48.592;9.634;2024-02-21T20:19:30;9.90;1.00
1602;DHT22;794;48.592;9.634;2024-02-21T20:29:18;10.10;1.00
1602;DHT22;794;48.592;9.634;2024-02-21T20:31:45;10.00;1.00
1602;DHT22;794;48.592;9.634;2024-02-21T20:34:14;9.90;1.00
1602;DHT22;794;48.592;9.634;2024-02-21T20:44:04;9.80;1.00
1602;DHT22;794;48.592;9.634;2024-02-21T20:48:58;10.30;1.00
1602;DHT22;794;48.592;9.634;2024-02-21T20:51:27;10.20;1.00
1602;DHT22;794;48.592;9.634;2024-02-21T20:56:21;10.30;1.00
1602;DHT22;794;48.592;9.634;2024-02-21T20:58:48;10.20;1.00
1602;DHT22;794;48.592;9.634;2024-02-21T21:03:43;10.50;1.00
1602;DHT22;794;48.592;9.634;2024-02-21T21:08:39;10.40;1.00
1602;DHT22;794;48.592;9.634;2024-02-21T21:11:07;10.50;1.00
1602;DHT22;794;48.592;9.634;2024-02-21T21:13:34;10.30;1.00
1602;DHT22;794;48.592;9.634;2024-02-21T21:16:01;10.50;1.00
1602;DHT22;794;48.592;9.634;2024-02-21T21:18:28;10.50;1.00
1602;DHT22;794;48.592;9.634;2024-02-21T21:23:24;10.60;1.00
1602;DHT22;794;48.592;9.634;2024-02-21T21:25:52;10.30;1.00
1602;DHT22;794;48.592;9.634;2024-02-21T21:40:38;10.40;1.00
1602;DHT22;794;48.592;9.634;2024-02-21T21:43:08;10.30;1.00
1602;DHT22;794;48.592;9.634;2024-02-21T21:45:35;10.60;1.00
1602;DHT22;794;48.592;9.634;2024-02-21T21:52:57;10.30;1.00
1602;DHT22;794;48.592;9.634;2024-02-21T21:55:24;10.00;1.00
1602;DHT22;794;48.592;9.634;2024-02-21T21:57:51;10.20;1.00
1602;DHT22;794;48.592;9.634;2024-02-21T22:00:19;10.20;1.00
1602;DHT22;794;48.592;9.634;2024-02-21T22:02:46;10.00;1.00
1602;DHT22;794;48.592;9.634;2024-02-21T22:05:13;10.10;1.00
1602;DHT22;794;48.592;9.634;2024-02-21T22:10:08;9.80;1.00
1602;DHT22;794;48.592;9.634;2024-02-21T22:12:35;9.80;1.00
1602;DHT22;794;48.592;9.634;2024-02-21T22:15:02;9.80;1.00
1602;DHT22;794;48.592;9.634;2024-02-21T22:17:32;9.70;1.00
1602;DHT22;794;48.592;9.634;2024-02-21T22:19:59;10.00;1.00
1602;DHT22;794;48.592;9.634;2024-02-21T22:22:26;9.90;1.00
1602;DHT22;794;48.592;9.634;2024-02-21T22:27:20;10.10;1.00
1602;DHT22;794;48.592;9.634;2024-02-21T22:29:49;10.00;1.00
1602;DHT22;794;48.592;9.634;2024-02-21T22:32:17;10.00;1.00
1602;DHT22;794;48.592;9.634;2024-02-21T22:34:46;9.70;1.00
1602;DHT22;794;48.592;9.634;2024-02-21T22:37:13;9.80;1.00
1602;DHT22;794;48.592;9.634;2024-02-21T22:44:40;9.60;1.00
1602;DHT22;794;48.592;9.634;2024-02-21T22:49:34;9.60;1.00
1602;DHT22;794;48.592;9.634;2024-02-21T22:52:02;9.90;1.00
1602;DHT22;794;48.592;9.634;2024-02-21T22:54:29;9.60;1.00
1602;DHT22;794;48.592;9.634;2024-02-21T23:04:20;9.50;1.00
1602;DHT22;794;48.592;9.634;2024-02-21T23:09:15;9.30;1.00
1602;DHT22;794;48.592;9.634;2024-02-21T23:14:10;9.50;1.00
1602;DHT22;794;48.592;9.634;2024-02-21T23:19:04;9.80;1.00
1602;DHT22;794;48.592;9.634;2024-02-21T23:21:31;9.60;1.00
1602;DHT22;794;48.592;9.634;2024-02-21T23:23:58;9.70;1.00
1602;DHT22;794;48.592;9.634;2024-02-21T23:26:27;9.80;1.00
1602;DHT22;794;48.592;9.634;2024-02-21T23:28:55;9.80;1.00
1602;DHT22;794;48.592;9.634;2024-02-21T23:31:24;9.70;1.00
1602;DHT22;794;48.592;9.634;2024-02-21T23:33:51;10.20;1.00
1602;DHT22;794;48.592;9.634;2024-02-21T23:36:18;10.00;1.00
1602;DHT22;794;48.592;9.634;2024-02-21T23:38:45;10.00;1.00
1602;DHT22;794;48.592;9.634;2024-02-21T23:41:14;9.70;1.00
1602;DHT22;794;48.592;9.634;2024-02-21T23:43:44;10.30;1.00
1602;DHT22;794;48.592;9.634;2024-02-21T23:46:11;10.10;1.00
1602;DHT22;794;48.592;9.634;2024-02-21T23:48:39;9.90;1.00
1602;DHT22;794;48.592;9.634;2024-02-21T23:51:06;10.00;1.00
1602;DHT22;794;48.592;9.634;2024-02-21T23:56:06;10.10;1.00
